sensor_id;sensor_type;location;lat;lon;timestamp;P1;durP1;ratioP1;P2;durP2;ratioP2
32760;SDS011;19126;47.472;7.850;2022-12-18T00:00:58;76.07;;;37.05;;
32760;SDS011;19126;47.472;7.850;2022-12-18T00:03:25;81.35;;;42.22;;
32760;SDS011;19126;47.472;7.850;2022-12-18T00:05:53;86.57;;;42.88;;
32760;SDS011;19126;47.472;7.850;2022-12-18T00:08:20;88.50;;;41.85;;
32760;SDS011;19126;47.472;7.850;2022-12-18T00:10:48;93.07;;;44.00;;
32760;SDS011;19126;47.472;7.850;2022-12-18T00:13:16;84.03;;;41.55;;
32760;SDS011;19126;47.472;7.850;2022-12-18T00:15:43;86.65;;;42.10;;
32760;SDS011;19126;47.472;7.850;2022-12-18T00:18:10;88.25;;;39.30;;
32760;SDS011;19126;47.472;7.850;2022-12-18T00:20:38;88.25;;;42.55;;
32760;SDS011;19126;47.472;7.850;2022-12-18T00:23:06;85.15;;;39.55;;
32760;SDS011;19126;47.472;7.850;2022-12-18T00:25:34;89.75;;;40.95;;
32760;SDS011;19126;47.472;7.850;2022-12-18T00:28:03;90.95;;;41.38;;
32760;SDS011;19126;47.472;7.850;2022-12-18T00:30:30;89.88;;;41.92;;
32760;SDS011;19126;47.472;7.850;2022-12-18T00:32:58;93.25;;;41.33;;
32760;SDS011;19126;47.472;7.850;2022-12-18T00:35:25;96.38;;;42.35;;
32760;SDS011;19126;47.472;7.850;2022-12-18T00:37:52;90.65;;;41.90;;
32760;SDS011;19126;47.472;7.850;2022-12-18T00:40:19;85.80;;;40.80;;
32760;SDS011;19126;47.472;7.850;2022-12-18T00:42:47;99.28;;;41.80;;
32760;SDS011;19126;47.472;7.850;2022-12-18T00:45:23;89.10;;;42.40;;
32760;SDS011;19126;47.472;7.850;2022-12-18T00:47:51;96.50;;;42.85;;
32760;SDS011;19126;47.472;7.850;2022-12-18T00:50:19;86.43;;;42.03;;
32760;SDS011;19126;47.472;7.850;2022-12-18T00:52:47;91.43;;;43.72;;
32760;SDS011;19126;47.472;7.850;2022-12-18T00:55:14;89.20;;;40.75;;
32760;SDS011;19126;47.472;7.850;2022-12-18T00:57:42;89.40;;;42.47;;
32760;SDS011;19126;47.472;7.850;2022-12-18T01:00:11;96.10;;;43.20;;
32760;SDS011;19126;47.472;7.850;2022-12-18T01:02:42;95.10;;;43.92;;
32760;SDS011;19126;47.472;7.850;2022-12-18T01:05:09;89.85;;;42.22;;
32760;SDS011;19126;47.472;7.850;2022-12-18T01:07:38;97.55;;;45.67;;
32760;SDS011;19126;47.472;7.850;2022-12-18T01:10:06;102.25;;;43.65;;
32760;SDS011;19126;47.472;7.850;2022-12-18T01:12:37;87.38;;;40.70;;
32760;SDS011;19126;47.472;7.850;2022-12-18T01:15:06;92.07;;;41.97;;
32760;SDS011;19126;47.472;7.850;2022-12-18T01:17:35;90.90;;;42.90;;
32760;SDS011;19126;47.472;7.850;2022-12-18T01:20:05;98.15;;;44.38;;
32760;SDS011;19126;47.472;7.850;2022-12-18T01:22:33;91.17;;;39.87;;
32760;SDS011;19126;47.472;7.850;2022-12-18T01:25:01;91.97;;;37.92;;
32760;SDS011;19126;47.472;7.850;2022-12-18T01:27:30;84.68;;;36.70;;
32760;SDS011;19126;47.472;7.850;2022-12-18T01:29:59;89.30;;;38.03;;
32760;SDS011;19126;47.472;7.850;2022-12-18T01:32:28;92.32;;;38.92;;
32760;SDS011;19126;47.472;7.850;2022-12-18T01:34:56;84.65;;;37.13;;
32760;SDS011;19126;47.472;7.850;2022-12-18T01:37:25;91.82;;;39.05;;
32760;SDS011;19126;47.472;7.850;2022-12-18T01:39:52;85.78;;;35.42;;
32760;SDS011;19126;47.472;7.850;2022-12-18T01:42:20;85.28;;;35.22;;
32760;SDS011;19126;47.472;7.850;2022-12-18T01:44:58;83.78;;;37.00;;
32760;SDS011;19126;47.472;7.850;2022-12-18T01:47:33;84.93;;;33.55;;
32760;SDS011;19126;47.472;7.850;2022-12-18T01:50:06;75.30;;;32.28;;
32760;SDS011;19126;47.472;7.850;2022-12-18T01:52:39;74.32;;;32.88;;
32760;SDS011;19126;47.472;7.850;2022-12-18T01:55:09;94.57;;;35.78;;
32760;SDS011;19126;47.472;7.850;2022-12-18T01:57:37;81.78;;;31.92;;
32760;SDS011;19126;47.472;7.850;2022-12-18T02:00:06;84.05;;;33.47;;
32760;SDS011;19126;47.472;7.850;2022-12-18T02:02:39;86.22;;;34.90;;
32760;SDS011;19126;47.472;7.850;2022-12-18T02:05:09;84.18;;;34.97;;
32760;SDS011;19126;47.472;7.850;2022-12-18T02:07:42;82.13;;;34.10;;
32760;SDS011;19126;47.472;7.850;2022-12-18T02:10:19;84.68;;;34.22;;
32760;SDS011;19126;47.472;7.850;2022-12-18T02:12:55;85.18;;;36.40;;
32760;SDS011;19126;47.472;7.850;2022-12-18T02:15:31;78.82;;;32.22;;
32760;SDS011;19126;47.472;7.850;2022-12-18T02:18:07;77.80;;;32.55;;
32760;SDS011;19126;47.472;7.850;2022-12-18T02:20:40;85.20;;;32.10;;
32760;SDS011;19126;47.472;7.850;2022-12-18T02:23:19;70.28;;;30.60;;
32760;SDS011;19126;47.472;7.850;2022-12-18T02:26:13;79.78;;;31.88;;
32760;SDS011;19126;47.472;7.850;2022-12-18T02:28:46;68.72;;;29.85;;
32760;SDS011;19126;47.472;7.850;2022-12-18T02:31:20;75.65;;;29.33;;
32760;SDS011;19126;47.472;7.850;2022-12-18T02:33:52;80.30;;;31.85;;
32760;SDS011;19126;47.472;7.850;2022-12-18T02:36:22;74.53;;;31.02;;
32760;SDS011;19126;47.472;7.850;2022-12-18T02:38:51;75.45;;;31.42;;
32760;SDS011;19126;47.472;7.850;2022-12-18T02:41:21;74.03;;;31.27;;
32760;SDS011;19126;47.472;7.850;2022-12-18T02:43:53;80.15;;;32.40;;
32760;SDS011;19126;47.472;7.850;2022-12-18T02:46:25;75.03;;;32.42;;
32760;SDS011;19126;47.472;7.850;2022-12-18T02:49:00;87.88;;;34.03;;
32760;SDS011;19126;47.472;7.850;2022-12-18T02:51:38;76.35;;;32.92;;
32760;SDS011;19126;47.472;7.850;2022-12-18T02:54:18;76.15;;;32.13;;
32760;SDS011;19126;47.472;7.850;2022-12-18T02:57:00;91.03;;;32.78;;
32760;SDS011;19126;47.472;7.850;2022-12-18T02:59:39;77.20;;;32.22;;
32760;SDS011;19126;47.472;7.850;2022-12-18T03:02:18;76.18;;;30.65;;
32760;SDS011;19126;47.472;7.850;2022-12-18T03:04:54;74.35;;;31.67;;
32760;SDS011;19126;47.472;7.850;2022-12-18T03:07:28;81.30;;;32.55;;
32760;SDS011;19126;47.472;7.850;2022-12-18T03:10:03;83.90;;;33.88;;
32760;SDS011;19126;47.472;7.850;2022-12-18T03:12:37;78.20;;;31.65;;
32760;SDS011;19126;47.472;7.850;2022-12-18T03:15:10;81.75;;;34.88;;
32760;SDS011;19126;47.472;7.850;2022-12-18T03:17:44;74.97;;;30.55;;
32760;SDS011;19126;47.472;7.850;2022-12-18T03:20:17;79.38;;;31.75;;
32760;SDS011;19126;47.472;7.850;2022-12-18T03:22:49;74.57;;;31.77;;
32760;SDS011;19126;47.472;7.850;2022-12-18T03:25:23;87.20;;;35.60;;
32760;SDS011;19126;47.472;7.850;2022-12-18T03:27:56;83.65;;;33.00;;
32760;SDS011;19126;47.472;7.850;2022-12-18T03:30:26;71.10;;;31.42;;
32760;SDS011;19126;47.472;7.850;2022-12-18T03:33:00;84.63;;;33.33;;
32760;SDS011;19126;47.472;7.850;2022-12-18T03:35:34;76.18;;;30.92;;
32760;SDS011;19126;47.472;7.850;2022-12-18T03:38:05;79.60;;;33.13;;
32760;SDS011;19126;47.472;7.850;2022-12-18T03:40:35;77.20;;;32.85;;
32760;SDS011;19126;47.472;7.850;2022-12-18T03:43:18;81.07;;;32.50;;
32760;SDS011;19126;47.472;7.850;2022-12-18T03:45:56;91.18;;;33.72;;
32760;SDS011;19126;47.472;7.850;2022-12-18T03:48:29;85.35;;;32.83;;
32760;SDS011;19126;47.472;7.850;2022-12-18T03:51:05;81.68;;;32.88;;
32760;SDS011;19126;47.472;7.850;2022-12-18T03:53:36;75.97;;;31.15;;
32760;SDS011;19126;47.472;7.850;2022-12-18T03:56:11;81.18;;;33.92;;
32760;SDS011;19126;47.472;7.850;2022-12-18T03:58:43;83.45;;;34.20;;
32760;SDS011;19126;47.472;7.850;2022-12-18T04:01:14;75.72;;;32.85;;
32760;SDS011;19126;47.472;7.850;2022-12-18T04:03:43;68.78;;;30.02;;
32760;SDS011;19126;47.472;7.850;2022-12-18T04:06:12;78.88;;;34.47;;
32760;SDS011;19126;47.472;7.850;2022-12-18T04:08:41;75.38;;;32.80;;
32760;SDS011;19126;47.472;7.850;2022-12-18T04:11:09;93.03;;;34.92;;
32760;SDS011;19126;47.472;7.850;2022-12-18T04:13:36;80.57;;;33.75;;
32760;SDS011;19126;47.472;7.850;2022-12-18T04:16:06;79.13;;;32.78;;
32760;SDS011;19126;47.472;7.850;2022-12-18T04:18:34;84.03;;;33.60;;
32760;SDS011;19126;47.472;7.850;2022-12-18T04:21:02;81.88;;;35.72;;
32760;SDS011;19126;47.472;7.850;2022-12-18T04:23:30;82.32;;;34.50;;
32760;SDS011;19126;47.472;7.850;2022-12-18T04:25:57;83.35;;;34.03;;
32760;SDS011;19126;47.472;7.850;2022-12-18T04:28:24;85.30;;;34.22;;
32760;SDS011;19126;47.472;7.850;2022-12-18T04:30:51;77.47;;;33.50;;
32760;SDS011;19126;47.472;7.850;2022-12-18T04:33:20;76.85;;;31.55;;
32760;SDS011;19126;47.472;7.850;2022-12-18T04:35:47;74.57;;;31.90;;
32760;SDS011;19126;47.472;7.850;2022-12-18T04:38:14;88.00;;;33.88;;
32760;SDS011;19126;47.472;7.850;2022-12-18T04:40:42;85.13;;;32.70;;
32760;SDS011;19126;47.472;7.850;2022-12-18T04:43:09;75.40;;;32.90;;
32760;SDS011;19126;47.472;7.850;2022-12-18T04:45:36;80.70;;;33.30;;
32760;SDS011;19126;47.472;7.850;2022-12-18T04:48:04;74.95;;;32.83;;
32760;SDS011;19126;47.472;7.850;2022-12-18T04:50:32;76.28;;;31.45;;
32760;SDS011;19126;47.472;7.850;2022-12-18T04:53:00;82.47;;;33.78;;
32760;SDS011;19126;47.472;7.850;2022-12-18T04:55:27;84.25;;;32.42;;
32760;SDS011;19126;47.472;7.850;2022-12-18T04:57:55;82.68;;;34.30;;
32760;SDS011;19126;47.472;7.850;2022-12-18T05:00:22;80.60;;;33.10;;
32760;SDS011;19126;47.472;7.850;2022-12-18T05:02:49;81.68;;;34.22;;
32760;SDS011;19126;47.472;7.850;2022-12-18T05:05:17;75.82;;;32.05;;
32760;SDS011;19126;47.472;7.850;2022-12-18T05:07:45;74.03;;;30.50;;
32760;SDS011;19126;47.472;7.850;2022-12-18T05:10:13;79.50;;;32.80;;
32760;SDS011;19126;47.472;7.850;2022-12-18T05:12:40;70.43;;;31.10;;
32760;SDS011;19126;47.472;7.850;2022-12-18T05:15:21;74.03;;;32.05;;
32760;SDS011;19126;47.472;7.850;2022-12-18T05:17:48;72.28;;;29.98;;
32760;SDS011;19126;47.472;7.850;2022-12-18T05:20:16;73.90;;;32.00;;
32760;SDS011;19126;47.472;7.850;2022-12-18T05:22:44;72.95;;;30.83;;
32760;SDS011;19126;47.472;7.850;2022-12-18T05:25:12;79.80;;;32.45;;
32760;SDS011;19126;47.472;7.850;2022-12-18T05:27:40;76.45;;;31.92;;
32760;SDS011;19126;47.472;7.850;2022-12-18T05:30:08;78.72;;;35.13;;
32760;SDS011;19126;47.472;7.850;2022-12-18T05:32:36;77.50;;;31.60;;
32760;SDS011;19126;47.472;7.850;2022-12-18T05:35:05;84.75;;;34.20;;
32760;SDS011;19126;47.472;7.850;2022-12-18T05:37:34;78.70;;;32.47;;
32760;SDS011;19126;47.472;7.850;2022-12-18T05:40:04;70.63;;;30.52;;
32760;SDS011;19126;47.472;7.850;2022-12-18T05:42:33;67.20;;;29.50;;
32760;SDS011;19126;47.472;7.850;2022-12-18T05:45:00;68.28;;;29.85;;
32760;SDS011;19126;47.472;7.850;2022-12-18T05:47:27;75.43;;;31.90;;
32760;SDS011;19126;47.472;7.850;2022-12-18T05:49:55;77.85;;;32.17;;
32760;SDS011;19126;47.472;7.850;2022-12-18T05:52:22;76.65;;;31.50;;
32760;SDS011;19126;47.472;7.850;2022-12-18T05:54:49;77.85;;;30.58;;
32760;SDS011;19126;47.472;7.850;2022-12-18T05:57:18;72.50;;;31.15;;
32760;SDS011;19126;47.472;7.850;2022-12-18T05:59:45;68.13;;;29.10;;
32760;SDS011;19126;47.472;7.850;2022-12-18T06:02:12;73.13;;;31.58;;
32760;SDS011;19126;47.472;7.850;2022-12-18T06:04:40;80.22;;;33.83;;
32760;SDS011;19126;47.472;7.850;2022-12-18T06:07:07;72.53;;;31.10;;
32760;SDS011;19126;47.472;7.850;2022-12-18T06:09:34;73.68;;;30.05;;
32760;SDS011;19126;47.472;7.850;2022-12-18T06:12:01;71.85;;;30.92;;
32760;SDS011;19126;47.472;7.850;2022-12-18T06:14:30;70.88;;;30.35;;
32760;SDS011;19126;47.472;7.850;2022-12-18T06:16:57;69.15;;;29.73;;
32760;SDS011;19126;47.472;7.850;2022-12-18T06:19:24;65.03;;;30.02;;
32760;SDS011;19126;47.472;7.850;2022-12-18T06:21:52;74.40;;;32.38;;
32760;SDS011;19126;47.472;7.850;2022-12-18T06:24:19;61.15;;;28.58;;
32760;SDS011;19126;47.472;7.850;2022-12-18T06:26:48;73.03;;;30.60;;
32760;SDS011;19126;47.472;7.850;2022-12-18T06:29:15;69.20;;;30.23;;
32760;SDS011;19126;47.472;7.850;2022-12-18T06:31:43;68.00;;;30.15;;
32760;SDS011;19126;47.472;7.850;2022-12-18T06:34:11;63.97;;;30.15;;
32760;SDS011;19126;47.472;7.850;2022-12-18T06:36:38;69.28;;;30.75;;
32760;SDS011;19126;47.472;7.850;2022-12-18T06:39:05;66.43;;;29.60;;
32760;SDS011;19126;47.472;7.850;2022-12-18T06:41:32;66.05;;;29.63;;
32760;SDS011;19126;47.472;7.850;2022-12-18T06:43:59;62.33;;;27.77;;
32760;SDS011;19126;47.472;7.850;2022-12-18T06:46:27;66.22;;;28.48;;
32760;SDS011;19126;47.472;7.850;2022-12-18T06:48:55;73.07;;;28.95;;
32760;SDS011;19126;47.472;7.850;2022-12-18T06:51:23;61.95;;;26.48;;
32760;SDS011;19126;47.472;7.850;2022-12-18T06:53:50;64.30;;;28.00;;
32760;SDS011;19126;47.472;7.850;2022-12-18T06:56:18;71.00;;;28.17;;
32760;SDS011;19126;47.472;7.850;2022-12-18T06:58:45;69.65;;;30.15;;
32760;SDS011;19126;47.472;7.850;2022-12-18T07:01:12;59.55;;;27.13;;
32760;SDS011;19126;47.472;7.850;2022-12-18T07:03:40;66.63;;;28.90;;
32760;SDS011;19126;47.472;7.850;2022-12-18T07:06:13;62.17;;;26.25;;
32760;SDS011;19126;47.472;7.850;2022-12-18T07:08:42;57.40;;;26.15;;
32760;SDS011;19126;47.472;7.850;2022-12-18T07:11:10;63.40;;;27.02;;
32760;SDS011;19126;47.472;7.850;2022-12-18T07:13:37;66.50;;;28.00;;
32760;SDS011;19126;47.472;7.850;2022-12-18T07:16:06;64.90;;;26.70;;
32760;SDS011;19126;47.472;7.850;2022-12-18T07:18:34;56.00;;;25.92;;
32760;SDS011;19126;47.472;7.850;2022-12-18T07:21:02;60.50;;;27.02;;
32760;SDS011;19126;47.472;7.850;2022-12-18T07:23:33;60.08;;;26.98;;
32760;SDS011;19126;47.472;7.850;2022-12-18T07:26:01;69.43;;;29.25;;
32760;SDS011;19126;47.472;7.850;2022-12-18T07:28:30;68.05;;;25.88;;
32760;SDS011;19126;47.472;7.850;2022-12-18T07:30:58;65.05;;;26.52;;
32760;SDS011;19126;47.472;7.850;2022-12-18T07:33:28;63.58;;;27.77;;
32760;SDS011;19126;47.472;7.850;2022-12-18T07:35:55;62.30;;;28.73;;
32760;SDS011;19126;47.472;7.850;2022-12-18T07:38:22;65.55;;;29.23;;
32760;SDS011;19126;47.472;7.850;2022-12-18T07:40:51;63.90;;;27.63;;
32760;SDS011;19126;47.472;7.850;2022-12-18T07:43:18;64.50;;;27.05;;
32760;SDS011;19126;47.472;7.850;2022-12-18T07:45:48;58.00;;;27.08;;
32760;SDS011;19126;47.472;7.850;2022-12-18T07:48:16;60.35;;;26.08;;
32760;SDS011;19126;47.472;7.850;2022-12-18T07:50:43;61.72;;;28.13;;
32760;SDS011;19126;47.472;7.850;2022-12-18T07:53:11;59.33;;;27.73;;
32760;SDS011;19126;47.472;7.850;2022-12-18T07:55:39;68.50;;;29.98;;
32760;SDS011;19126;47.472;7.850;2022-12-18T07:58:08;61.75;;;27.63;;
32760;SDS011;19126;47.472;7.850;2022-12-18T08:00:36;59.72;;;25.95;;
32760;SDS011;19126;47.472;7.850;2022-12-18T08:03:03;63.85;;;28.55;;
32760;SDS011;19126;47.472;7.850;2022-12-18T08:05:30;61.70;;;27.38;;
32760;SDS011;19126;47.472;7.850;2022-12-18T08:07:58;53.95;;;24.77;;
32760;SDS011;19126;47.472;7.850;2022-12-18T08:10:25;60.42;;;25.73;;
32760;SDS011;19126;47.472;7.850;2022-12-18T08:12:52;58.10;;;26.83;;
32760;SDS011;19126;47.472;7.850;2022-12-18T08:15:21;61.33;;;26.55;;
32760;SDS011;19126;47.472;7.850;2022-12-18T08:17:48;56.08;;;25.80;;
32760;SDS011;19126;47.472;7.850;2022-12-18T08:20:15;52.97;;;25.08;;
32760;SDS011;19126;47.472;7.850;2022-12-18T08:22:43;54.40;;;24.95;;
32760;SDS011;19126;47.472;7.850;2022-12-18T08:25:11;56.70;;;25.23;;
32760;SDS011;19126;47.472;7.850;2022-12-18T08:27:38;55.15;;;23.77;;
32760;SDS011;19126;47.472;7.850;2022-12-18T08:30:06;54.97;;;26.80;;
32760;SDS011;19126;47.472;7.850;2022-12-18T08:32:36;52.05;;;24.77;;
32760;SDS011;19126;47.472;7.850;2022-12-18T08:35:03;60.10;;;27.40;;
32760;SDS011;19126;47.472;7.850;2022-12-18T08:37:33;56.22;;;25.95;;
32760;SDS011;19126;47.472;7.850;2022-12-18T08:40:00;54.10;;;25.58;;
32760;SDS011;19126;47.472;7.850;2022-12-18T08:42:27;50.55;;;25.55;;
32760;SDS011;19126;47.472;7.850;2022-12-18T08:45:12;53.22;;;25.83;;
32760;SDS011;19126;47.472;7.850;2022-12-18T08:47:41;55.13;;;25.58;;
32760;SDS011;19126;47.472;7.850;2022-12-18T08:50:08;53.55;;;25.60;;
32760;SDS011;19126;47.472;7.850;2022-12-18T08:52:37;47.90;;;24.65;;
32760;SDS011;19126;47.472;7.850;2022-12-18T08:55:04;51.20;;;25.05;;
32760;SDS011;19126;47.472;7.850;2022-12-18T08:57:34;51.20;;;25.60;;
32760;SDS011;19126;47.472;7.850;2022-12-18T09:00:01;50.22;;;25.85;;
32760;SDS011;19126;47.472;7.850;2022-12-18T09:02:29;51.13;;;24.70;;
32760;SDS011;19126;47.472;7.850;2022-12-18T09:04:58;48.75;;;24.85;;
32760;SDS011;19126;47.472;7.850;2022-12-18T09:07:25;53.22;;;27.05;;
32760;SDS011;19126;47.472;7.850;2022-12-18T09:09:52;48.30;;;24.48;;
32760;SDS011;19126;47.472;7.850;2022-12-18T09:12:20;53.42;;;26.20;;
32760;SDS011;19126;47.472;7.850;2022-12-18T09:14:47;52.58;;;25.88;;
32760;SDS011;19126;47.472;7.850;2022-12-18T09:17:14;51.08;;;24.10;;
32760;SDS011;19126;47.472;7.850;2022-12-18T09:19:42;53.05;;;25.25;;
32760;SDS011;19126;47.472;7.850;2022-12-18T09:22:10;46.22;;;24.42;;
32760;SDS011;19126;47.472;7.850;2022-12-18T09:24:38;49.20;;;24.13;;
32760;SDS011;19126;47.472;7.850;2022-12-18T09:27:05;49.47;;;24.98;;
32760;SDS011;19126;47.472;7.850;2022-12-18T09:29:32;55.35;;;26.75;;
32760;SDS011;19126;47.472;7.850;2022-12-18T09:31:59;51.53;;;25.58;;
32760;SDS011;19126;47.472;7.850;2022-12-18T09:34:27;49.88;;;27.10;;
32760;SDS011;19126;47.472;7.850;2022-12-18T09:36:54;53.05;;;26.20;;
32760;SDS011;19126;47.472;7.850;2022-12-18T09:39:23;56.60;;;26.55;;
32760;SDS011;19126;47.472;7.850;2022-12-18T09:41:51;52.45;;;25.15;;
32760;SDS011;19126;47.472;7.850;2022-12-18T09:44:22;48.05;;;25.75;;
32760;SDS011;19126;47.472;7.850;2022-12-18T09:47:04;49.60;;;24.58;;
32760;SDS011;19126;47.472;7.850;2022-12-18T09:49:38;55.92;;;25.55;;
32760;SDS011;19126;47.472;7.850;2022-12-18T09:54:42;49.45;;;24.48;;
32760;SDS011;19126;47.472;7.850;2022-12-18T09:57:13;49.72;;;24.95;;
32760;SDS011;19126;47.472;7.850;2022-12-18T09:59:44;48.40;;;25.08;;
32760;SDS011;19126;47.472;7.850;2022-12-18T10:02:18;46.70;;;24.65;;
32760;SDS011;19126;47.472;7.850;2022-12-18T10:04:49;49.22;;;23.70;;
32760;SDS011;19126;47.472;7.850;2022-12-18T10:07:29;51.35;;;26.02;;
32760;SDS011;19126;47.472;7.850;2022-12-18T10:10:14;52.08;;;25.67;;
32760;SDS011;19126;47.472;7.850;2022-12-18T10:12:55;49.55;;;25.35;;
32760;SDS011;19126;47.472;7.850;2022-12-18T10:15:33;53.33;;;26.45;;
32760;SDS011;19126;47.472;7.850;2022-12-18T10:18:10;52.55;;;25.70;;
32760;SDS011;19126;47.472;7.850;2022-12-18T10:20:51;51.53;;;25.55;;
32760;SDS011;19126;47.472;7.850;2022-12-18T10:23:25;54.25;;;24.27;;
32760;SDS011;19126;47.472;7.850;2022-12-18T10:26:02;50.22;;;24.98;;
32760;SDS011;19126;47.472;7.850;2022-12-18T10:28:33;50.85;;;25.80;;
32760;SDS011;19126;47.472;7.850;2022-12-18T10:31:06;59.22;;;26.98;;
32760;SDS011;19126;47.472;7.850;2022-12-18T10:33:33;51.92;;;26.25;;
32760;SDS011;19126;47.472;7.850;2022-12-18T10:36:01;56.35;;;26.73;;
32760;SDS011;19126;47.472;7.850;2022-12-18T10:38:29;55.63;;;26.67;;
32760;SDS011;19126;47.472;7.850;2022-12-18T10:40:59;52.95;;;27.65;;
32760;SDS011;19126;47.472;7.850;2022-12-18T10:43:30;56.17;;;27.30;;
32760;SDS011;19126;47.472;7.850;2022-12-18T10:46:00;51.65;;;26.55;;
32760;SDS011;19126;47.472;7.850;2022-12-18T10:48:31;60.15;;;29.02;;
32760;SDS011;19126;47.472;7.850;2022-12-18T10:51:02;59.25;;;26.98;;
32760;SDS011;19126;47.472;7.850;2022-12-18T10:53:31;60.20;;;27.33;;
32760;SDS011;19126;47.472;7.850;2022-12-18T10:56:03;60.47;;;28.80;;
32760;SDS011;19126;47.472;7.850;2022-12-18T10:58:33;66.97;;;28.05;;
32760;SDS011;19126;47.472;7.850;2022-12-18T11:01:07;55.33;;;26.92;;
32760;SDS011;19126;47.472;7.850;2022-12-18T11:03:38;58.55;;;27.83;;
32760;SDS011;19126;47.472;7.850;2022-12-18T11:06:09;54.83;;;27.10;;
32760;SDS011;19126;47.472;7.850;2022-12-18T11:08:38;63.55;;;27.80;;
32760;SDS011;19126;47.472;7.850;2022-12-18T11:11:15;55.80;;;26.83;;
32760;SDS011;19126;47.472;7.850;2022-12-18T11:13:50;51.90;;;26.73;;
32760;SDS011;19126;47.472;7.850;2022-12-18T11:16:28;54.80;;;26.00;;
32760;SDS011;19126;47.472;7.850;2022-12-18T11:19:07;52.55;;;25.00;;
32760;SDS011;19126;47.472;7.850;2022-12-18T11:21:50;58.25;;;27.55;;
32760;SDS011;19126;47.472;7.850;2022-12-18T11:24:20;54.05;;;25.92;;
32760;SDS011;19126;47.472;7.850;2022-12-18T11:26:59;50.03;;;24.38;;
32760;SDS011;19126;47.472;7.850;2022-12-18T11:29:31;57.47;;;26.02;;
32760;SDS011;19126;47.472;7.850;2022-12-18T11:32:19;58.67;;;27.90;;
32760;SDS011;19126;47.472;7.850;2022-12-18T11:35:03;55.03;;;26.63;;
32760;SDS011;19126;47.472;7.850;2022-12-18T11:37:41;54.47;;;25.40;;
32760;SDS011;19126;47.472;7.850;2022-12-18T11:40:15;51.90;;;25.67;;
32760;SDS011;19126;47.472;7.850;2022-12-18T11:42:50;57.17;;;25.20;;
32760;SDS011;19126;47.472;7.850;2022-12-18T11:45:27;52.45;;;26.63;;
32760;SDS011;19126;47.472;7.850;2022-12-18T11:47:58;50.10;;;25.65;;
32760;SDS011;19126;47.472;7.850;2022-12-18T11:50:33;55.60;;;25.70;;
32760;SDS011;19126;47.472;7.850;2022-12-18T11:53:11;51.53;;;25.02;;
32760;SDS011;19126;47.472;7.850;2022-12-18T11:55:40;50.47;;;24.95;;
32760;SDS011;19126;47.472;7.850;2022-12-18T11:58:19;53.05;;;26.30;;
32760;SDS011;19126;47.472;7.850;2022-12-18T12:01:07;55.95;;;24.77;;
32760;SDS011;19126;47.472;7.850;2022-12-18T12:03:53;55.67;;;27.00;;
32760;SDS011;19126;47.472;7.850;2022-12-18T12:06:56;47.83;;;24.10;;
32760;SDS011;19126;47.472;7.850;2022-12-18T12:09:31;49.45;;;24.80;;
32760;SDS011;19126;47.472;7.850;2022-12-18T12:12:10;47.97;;;23.95;;
32760;SDS011;19126;47.472;7.850;2022-12-18T12:14:57;48.58;;;25.15;;
32760;SDS011;19126;47.472;7.850;2022-12-18T12:17:38;51.60;;;25.83;;
32760;SDS011;19126;47.472;7.850;2022-12-18T12:20:15;48.25;;;24.27;;
32760;SDS011;19126;47.472;7.850;2022-12-18T12:22:52;51.22;;;25.13;;
32760;SDS011;19126;47.472;7.850;2022-12-18T12:25:30;57.20;;;26.73;;
32760;SDS011;19126;47.472;7.850;2022-12-18T12:28:10;49.80;;;24.05;;
32760;SDS011;19126;47.472;7.850;2022-12-18T12:30:52;47.63;;;24.13;;
32760;SDS011;19126;47.472;7.850;2022-12-18T12:33:32;52.60;;;25.95;;
32760;SDS011;19126;47.472;7.850;2022-12-18T12:36:12;52.22;;;24.33;;
32760;SDS011;19126;47.472;7.850;2022-12-18T12:38:55;51.25;;;24.00;;
32760;SDS011;19126;47.472;7.850;2022-12-18T12:41:27;50.35;;;24.75;;
32760;SDS011;19126;47.472;7.850;2022-12-18T12:44:18;47.92;;;24.05;;
32760;SDS011;19126;47.472;7.850;2022-12-18T12:46:52;49.65;;;23.85;;
32760;SDS011;19126;47.472;7.850;2022-12-18T12:49:25;50.08;;;25.90;;
32760;SDS011;19126;47.472;7.850;2022-12-18T12:51:58;49.10;;;25.88;;
32760;SDS011;19126;47.472;7.850;2022-12-18T12:54:32;53.03;;;25.33;;
32760;SDS011;19126;47.472;7.850;2022-12-18T12:57:02;45.20;;;23.10;;
32760;SDS011;19126;47.472;7.850;2022-12-18T12:59:37;51.63;;;24.02;;
32760;SDS011;19126;47.472;7.850;2022-12-18T13:02:18;45.40;;;22.83;;
32760;SDS011;19126;47.472;7.850;2022-12-18T13:04:52;49.33;;;23.90;;
32760;SDS011;19126;47.472;7.850;2022-12-18T13:07:27;46.25;;;23.30;;
32760;SDS011;19126;47.472;7.850;2022-12-18T13:10:12;45.15;;;23.10;;
32760;SDS011;19126;47.472;7.850;2022-12-18T13:12:52;47.90;;;22.85;;
32760;SDS011;19126;47.472;7.850;2022-12-18T13:15:21;51.63;;;24.42;;
32760;SDS011;19126;47.472;7.850;2022-12-18T13:20:47;46.08;;;23.58;;
32760;SDS011;19126;47.472;7.850;2022-12-18T13:23:20;47.08;;;23.33;;
32760;SDS011;19126;47.472;7.850;2022-12-18T13:28:59;44.58;;;23.05;;
32760;SDS011;19126;47.472;7.850;2022-12-18T13:34:35;47.10;;;23.00;;
32760;SDS011;19126;47.472;7.850;2022-12-18T13:43:35;42.30;;;20.80;;
32760;SDS011;19126;47.472;7.850;2022-12-18T13:46:17;49.97;;;23.75;;
32760;SDS011;19126;47.472;7.850;2022-12-18T13:59:13;50.75;;;24.42;;
32760;SDS011;19126;47.472;7.850;2022-12-18T14:04:21;53.58;;;24.27;;
32760;SDS011;19126;47.472;7.850;2022-12-18T14:17:16;52.08;;;24.63;;
32760;SDS011;19126;47.472;7.850;2022-12-18T14:45:41;47.78;;;22.42;;
32760;SDS011;19126;47.472;7.850;2022-12-18T14:48:13;47.20;;;22.35;;
32760;SDS011;19126;47.472;7.850;2022-12-18T14:50:44;58.03;;;23.98;;
32760;SDS011;19126;47.472;7.850;2022-12-18T14:53:21;48.50;;;21.90;;
32760;SDS011;19126;47.472;7.850;2022-12-18T14:55:55;48.67;;;22.92;;
32760;SDS011;19126;47.472;7.850;2022-12-18T14:58:22;52.92;;;24.77;;
32760;SDS011;19126;47.472;7.850;2022-12-18T15:00:51;46.15;;;24.50;;
32760;SDS011;19126;47.472;7.850;2022-12-18T15:03:18;49.85;;;22.38;;
32760;SDS011;19126;47.472;7.850;2022-12-18T15:05:47;48.65;;;23.33;;
32760;SDS011;19126;47.472;7.850;2022-12-18T15:08:27;47.58;;;22.45;;
32760;SDS011;19126;47.472;7.850;2022-12-18T15:11:01;48.13;;;22.55;;
32760;SDS011;19126;47.472;7.850;2022-12-18T15:13:29;54.60;;;24.20;;
32760;SDS011;19126;47.472;7.850;2022-12-18T15:15:59;55.63;;;24.08;;
32760;SDS011;19126;47.472;7.850;2022-12-18T15:18:29;45.72;;;23.17;;
32760;SDS011;19126;47.472;7.850;2022-12-18T15:23:36;46.03;;;21.60;;
32760;SDS011;19126;47.472;7.850;2022-12-18T15:26:12;52.47;;;24.20;;
32760;SDS011;19126;47.472;7.850;2022-12-18T15:28:43;51.13;;;23.92;;
32760;SDS011;19126;47.472;7.850;2022-12-18T15:31:23;51.20;;;22.48;;
32760;SDS011;19126;47.472;7.850;2022-12-18T15:34:09;50.38;;;23.70;;
32760;SDS011;19126;47.472;7.850;2022-12-18T15:36:39;56.92;;;24.10;;
32760;SDS011;19126;47.472;7.850;2022-12-18T15:39:09;53.20;;;23.10;;
32760;SDS011;19126;47.472;7.850;2022-12-18T15:44:25;52.28;;;23.52;;
32760;SDS011;19126;47.472;7.850;2022-12-18T15:46:53;51.70;;;24.83;;
32760;SDS011;19126;47.472;7.850;2022-12-18T15:49:21;52.13;;;23.42;;
32760;SDS011;19126;47.472;7.850;2022-12-18T15:51:48;51.97;;;24.67;;
32760;SDS011;19126;47.472;7.850;2022-12-18T15:54:18;55.28;;;24.52;;
32760;SDS011;19126;47.472;7.850;2022-12-18T15:57:08;53.90;;;24.77;;